Aviation Digital Data Service (ADDS)

Output produced by METARs form (1139 UTC 21 April 2018)
found at http://aviationweather.gov/adds/metars/
 
KINT 211120Z 2112/2212 VRB03KT P6SM SKC